sensor_id;sensor_type;location;lat;lon;timestamp;pressure;altitude;pressure_sealevel;temperature;humidity
55660;BME280;41534;53.550;9.964;2024-03-02T00:00:30;100167.19;;;22.55;45.33
55660;BME280;41534;53.550;9.964;2024-03-02T00:03:30;100175.59;;;22.54;45.44
55660;BME280;41534;53.550;9.964;2024-03-02T00:06:30;100170.59;;;22.51;45.50
55660;BME280;41534;53.550;9.964;2024-03-02T00:09:31;100176.28;;;22.49;45.47
55660;BME280;41534;53.550;9.964;2024-03-02T00:12:31;100172.31;;;22.45;45.28
55660;BME280;41534;53.550;9.964;2024-03-02T00:15:41;100170.66;;;22.44;45.18
55660;BME280;41534;53.550;9.964;2024-03-02T00:18:42;100167.53;;;22.41;45.39
55660;BME280;41534;53.550;9.964;2024-03-02T00:21:42;100168.78;;;22.38;45.39
55660;BME280;41534;53.550;9.964;2024-03-02T00:24:42;100157.47;;;22.35;45.25
55660;BME280;41534;53.550;9.964;2024-03-02T00:27:47;100163.16;;;22.33;45.24
55660;BME280;41534;53.550;9.964;2024-03-02T00:33:58;100150.41;;;22.27;45.07
55660;BME280;41534;53.550;9.964;2024-03-02T00:37:03;100146.22;;;22.24;45.11
55660;BME280;41534;53.550;9.964;2024-03-02T00:40:03;100148.53;;;22.21;45.37
55660;BME280;41534;53.550;9.964;2024-03-02T00:43:04;100141.63;;;22.18;45.35
55660;BME280;41534;53.550;9.964;2024-03-02T00:46:04;100144.56;;;22.17;45.35
55660;BME280;41534;53.550;9.964;2024-03-02T00:49:12;100140.63;;;22.13;45.32
55660;BME280;41534;53.550;9.964;2024-03-02T00:52:17;100145.47;;;22.11;45.42
55660;BME280;41534;53.550;9.964;2024-03-02T00:55:20;100141.28;;;22.08;45.38
55660;BME280;41534;53.550;9.964;2024-03-02T00:58:21;100141.75;;;22.05;45.54
55660;BME280;41534;53.550;9.964;2024-03-02T01:01:21;100140.03;;;22.04;45.73
55660;BME280;41534;53.550;9.964;2024-03-02T01:04:22;100144.00;;;22.02;45.46
55660;BME280;41534;53.550;9.964;2024-03-02T01:07:22;100145.28;;;21.99;45.53
55660;BME280;41534;53.550;9.964;2024-03-02T01:10:22;100149.06;;;21.98;45.47
55660;BME280;41534;53.550;9.964;2024-03-02T01:13:23;100145.13;;;21.94;45.57
55660;BME280;41534;53.550;9.964;2024-03-02T01:16:23;100151.84;;;21.91;45.68
55660;BME280;41534;53.550;9.964;2024-03-02T01:19:23;100153.75;;;21.91;45.42
55660;BME280;41534;53.550;9.964;2024-03-02T01:22:24;100158.59;;;21.89;45.72
55660;BME280;41534;53.550;9.964;2024-03-02T01:25:24;100154.38;;;21.86;45.49
55660;BME280;41534;53.550;9.964;2024-03-02T01:28:24;100153.75;;;21.84;45.57
55660;BME280;41534;53.550;9.964;2024-03-02T01:31:25;100155.88;;;21.82;45.63
55660;BME280;41534;53.550;9.964;2024-03-02T01:34:25;100146.22;;;21.80;45.72
55660;BME280;41534;53.550;9.964;2024-03-02T01:37:25;100148.34;;;21.78;45.53
55660;BME280;41534;53.550;9.964;2024-03-02T01:40:26;100138.50;;;21.77;45.69
55660;BME280;41534;53.550;9.964;2024-03-02T01:43:26;100146.91;;;21.75;45.49
55660;BME280;41534;53.550;9.964;2024-03-02T01:46:26;100146.28;;;21.73;45.68
55660;BME280;41534;53.550;9.964;2024-03-02T01:49:27;100148.38;;;21.71;45.62
55660;BME280;41534;53.550;9.964;2024-03-02T01:52:27;100140.63;;;21.68;45.50
55660;BME280;41534;53.550;9.964;2024-03-02T01:55:28;100146.28;;;21.66;45.67
55660;BME280;41534;53.550;9.964;2024-03-02T01:58:28;100143.78;;;21.65;45.62
55660;BME280;41534;53.550;9.964;2024-03-02T02:01:28;100140.66;;;21.61;45.65
55660;BME280;41534;53.550;9.964;2024-03-02T02:04:29;100127.25;;;21.60;45.63
55660;BME280;41534;53.550;9.964;2024-03-02T02:07:29;100127.47;;;21.58;45.73
55660;BME280;41534;53.550;9.964;2024-03-02T02:10:29;100125.78;;;21.57;45.93
55660;BME280;41534;53.550;9.964;2024-03-02T02:13:30;100117.84;;;21.56;45.97
55660;BME280;41534;53.550;9.964;2024-03-02T02:16:30;100117.22;;;21.54;45.53
55660;BME280;41534;53.550;9.964;2024-03-02T02:19:31;100125.41;;;21.54;45.76
55660;BME280;41534;53.550;9.964;2024-03-02T02:22:31;100118.47;;;21.51;45.87
55660;BME280;41534;53.550;9.964;2024-03-02T02:25:31;100116.78;;;21.50;45.59
55660;BME280;41534;53.550;9.964;2024-03-02T02:28:31;100103.59;;;21.47;45.55
55660;BME280;41534;53.550;9.964;2024-03-02T02:31:41;100102.75;;;21.47;45.71
55660;BME280;41534;53.550;9.964;2024-03-02T02:34:41;100100.47;;;21.44;45.64
55660;BME280;41534;53.550;9.964;2024-03-02T02:37:42;100101.53;;;21.43;45.87
55660;BME280;41534;53.550;9.964;2024-03-02T02:40:43;100093.56;;;21.41;45.63
55660;BME280;41534;53.550;9.964;2024-03-02T02:43:43;100100.06;;;21.40;45.52
55660;BME280;41534;53.550;9.964;2024-03-02T02:46:44;100095.69;;;21.39;45.86
55660;BME280;41534;53.550;9.964;2024-03-02T02:49:44;100088.78;;;21.36;45.41
55660;BME280;41534;53.550;9.964;2024-03-02T02:52:44;100092.56;;;21.35;45.78
55660;BME280;41534;53.550;9.964;2024-03-02T02:55:45;100091.91;;;21.33;45.71
55660;BME280;41534;53.550;9.964;2024-03-02T02:58:45;100093.78;;;21.33;45.83
55660;BME280;41534;53.550;9.964;2024-03-02T03:01:45;100091.28;;;21.31;45.83
55660;BME280;41534;53.550;9.964;2024-03-02T03:04:45;100094.84;;;21.32;45.98
55660;BME280;41534;53.550;9.964;2024-03-02T03:07:46;100098.84;;;21.29;46.11
55660;BME280;41534;53.550;9.964;2024-03-02T03:10:46;100090.88;;;21.28;46.23
55660;BME280;41534;53.550;9.964;2024-03-02T03:13:46;100084.81;;;21.26;46.16
55660;BME280;41534;53.550;9.964;2024-03-02T03:16:47;100094.03;;;21.25;46.45
55660;BME280;41534;53.550;9.964;2024-03-02T03:19:47;100090.50;;;21.24;46.41
55660;BME280;41534;53.550;9.964;2024-03-02T03:22:47;100094.22;;;21.23;46.46
55660;BME280;41534;53.550;9.964;2024-03-02T03:25:47;100086.28;;;21.22;46.45
55660;BME280;41534;53.550;9.964;2024-03-02T03:28:48;100097.19;;;21.22;46.52
55660;BME280;41534;53.550;9.964;2024-03-02T03:31:48;100094.44;;;21.22;46.52
55660;BME280;41534;53.550;9.964;2024-03-02T03:34:48;100093.00;;;21.19;46.48
55660;BME280;41534;53.550;9.964;2024-03-02T03:37:49;100098.44;;;21.19;46.76
55660;BME280;41534;53.550;9.964;2024-03-02T03:40:49;100092.34;;;21.17;46.75
55660;BME280;41534;53.550;9.964;2024-03-02T03:43:49;100088.78;;;21.17;46.98
55660;BME280;41534;53.550;9.964;2024-03-02T03:46:49;100090.06;;;21.14;46.86
55660;BME280;41534;53.550;9.964;2024-03-02T03:49:50;100097.41;;;21.14;46.97
55660;BME280;41534;53.550;9.964;2024-03-02T03:52:50;100084.81;;;21.13;47.02
55660;BME280;41534;53.550;9.964;2024-03-02T03:55:50;100085.88;;;21.12;47.07
55660;BME280;41534;53.550;9.964;2024-03-02T03:58:50;100090.50;;;21.11;46.84
55660;BME280;41534;53.550;9.964;2024-03-02T04:01:51;100090.72;;;21.10;47.08
55660;BME280;41534;53.550;9.964;2024-03-02T04:04:51;100085.25;;;21.10;47.11
55660;BME280;41534;53.550;9.964;2024-03-02T04:07:51;100083.38;;;21.10;47.03
55660;BME280;41534;53.550;9.964;2024-03-02T04:10:51;100080.03;;;21.08;47.02
55660;BME280;41534;53.550;9.964;2024-03-02T04:13:52;100080.47;;;21.05;47.04
55660;BME280;41534;53.550;9.964;2024-03-02T04:16:52;100081.72;;;21.02;46.77
55660;BME280;41534;53.550;9.964;2024-03-02T04:19:52;100080.25;;;21.00;46.82
55660;BME280;41534;53.550;9.964;2024-03-02T04:22:53;100075.22;;;20.97;46.92
55660;BME280;41534;53.550;9.964;2024-03-02T04:25:53;100072.94;;;20.94;46.63
55660;BME280;41534;53.550;9.964;2024-03-02T04:28:53;100075.03;;;20.92;46.68
55660;BME280;41534;53.550;9.964;2024-03-02T04:31:53;100081.75;;;20.89;46.45
55660;BME280;41534;53.550;9.964;2024-03-02T04:34:54;100077.56;;;20.87;46.62
55660;BME280;41534;53.550;9.964;2024-03-02T04:37:54;100089.75;;;20.84;46.39
55660;BME280;41534;53.550;9.964;2024-03-02T04:40:54;100092.69;;;20.83;46.48
55660;BME280;41534;53.550;9.964;2024-03-02T04:43:55;100097.47;;;20.81;46.31
55660;BME280;41534;53.550;9.964;2024-03-02T04:46:55;100097.69;;;20.79;46.11
55660;BME280;41534;53.550;9.964;2024-03-02T04:49:55;100097.91;;;20.77;46.16
55660;BME280;41534;53.550;9.964;2024-03-02T04:52:55;100096.44;;;20.75;46.10
55660;BME280;41534;53.550;9.964;2024-03-02T04:55:56;100103.78;;;20.74;45.97
55660;BME280;41534;53.550;9.964;2024-03-02T04:58:56;100099.59;;;20.72;46.01
55660;BME280;41534;53.550;9.964;2024-03-02T05:01:56;100091.00;;;20.68;45.96
55660;BME280;41534;53.550;9.964;2024-03-02T05:04:57;100090.19;;;20.68;46.03
55660;BME280;41534;53.550;9.964;2024-03-02T05:07:57;100083.28;;;20.65;45.79
55660;BME280;41534;53.550;9.964;2024-03-02T05:10:57;100080.72;;;20.64;45.72
55660;BME280;41534;53.550;9.964;2024-03-02T05:13:57;100083.66;;;20.62;45.58
55660;BME280;41534;53.550;9.964;2024-03-02T05:16:58;100086.81;;;20.59;45.63
55660;BME280;41534;53.550;9.964;2024-03-02T05:19:58;100085.97;;;20.59;45.65
55660;BME280;41534;53.550;9.964;2024-03-02T05:22:58;100094.38;;;20.57;45.64
55660;BME280;41534;53.550;9.964;2024-03-02T05:25:58;100084.75;;;20.55;45.40
55660;BME280;41534;53.550;9.964;2024-03-02T05:28:59;100091.22;;;20.54;45.61
55660;BME280;41534;53.550;9.964;2024-03-02T05:31:59;100092.28;;;20.53;45.42
55660;BME280;41534;53.550;9.964;2024-03-02T05:34:59;100094.38;;;20.51;45.25
55660;BME280;41534;53.550;9.964;2024-03-02T05:38:00;100091.88;;;20.49;45.40
55660;BME280;41534;53.550;9.964;2024-03-02T05:41:00;100082.03;;;20.48;45.14
55660;BME280;41534;53.550;9.964;2024-03-02T05:44:00;100090.19;;;20.48;45.16
55660;BME280;41534;53.550;9.964;2024-03-02T05:47:01;100090.59;;;20.45;45.14
55660;BME280;41534;53.550;9.964;2024-03-02T05:50:01;100081.81;;;20.43;45.17
55660;BME280;41534;53.550;9.964;2024-03-02T05:53:01;100088.28;;;20.42;45.27
55660;BME280;41534;53.550;9.964;2024-03-02T05:56:02;100076.75;;;20.40;44.83
55660;BME280;41534;53.550;9.964;2024-03-02T05:59:02;100088.69;;;20.39;44.97
55660;BME280;41534;53.550;9.964;2024-03-02T06:02:02;100101.66;;;20.37;45.05
55660;BME280;41534;53.550;9.964;2024-03-02T06:05:03;100089.13;;;20.36;44.90
55660;BME280;41534;53.550;9.964;2024-03-02T06:11:03;100102.31;;;20.32;44.81
55660;BME280;41534;53.550;9.964;2024-03-02T06:14:07;100100.63;;;20.31;44.97
55660;BME280;41534;53.550;9.964;2024-03-02T06:17:08;100092.66;;;20.30;44.91
55660;BME280;41534;53.550;9.964;2024-03-02T06:20:09;100096.41;;;20.29;44.81
55660;BME280;41534;53.550;9.964;2024-03-02T06:23:09;100101.03;;;20.28;44.74
55660;BME280;41534;53.550;9.964;2024-03-02T06:26:10;100105.84;;;20.26;44.69
55660;BME280;41534;53.550;9.964;2024-03-02T06:29:10;100097.88;;;20.25;44.89
55660;BME280;41534;53.550;9.964;2024-03-02T06:32:10;100095.38;;;20.23;44.84
55660;BME280;41534;53.550;9.964;2024-03-02T06:35:10;100091.00;;;20.22;44.62
55660;BME280;41534;53.550;9.964;2024-03-02T06:38:11;100093.72;;;20.22;44.86
55660;BME280;41534;53.550;9.964;2024-03-02T06:41:11;100096.63;;;20.21;44.82
55660;BME280;41534;53.550;9.964;2024-03-02T06:44:11;100092.25;;;20.20;44.63
55660;BME280;41534;53.550;9.964;2024-03-02T06:47:11;100091.63;;;20.17;44.56
55660;BME280;41534;53.550;9.964;2024-03-02T06:50:12;100100.81;;;20.16;44.50
55660;BME280;41534;53.550;9.964;2024-03-02T06:53:12;100106.25;;;20.16;44.61
55660;BME280;41534;53.550;9.964;2024-03-02T06:56:12;100095.59;;;20.15;44.54
55660;BME280;41534;53.550;9.964;2024-03-02T06:59:13;100099.38;;;20.14;44.49
55660;BME280;41534;53.550;9.964;2024-03-02T07:02:13;100099.38;;;20.14;44.40
55660;BME280;41534;53.550;9.964;2024-03-02T07:05:13;100110.41;;;20.12;44.55
55660;BME280;41534;53.550;9.964;2024-03-02T07:08:13;100119.63;;;20.11;44.30
55660;BME280;41534;53.550;9.964;2024-03-02T07:11:14;100132.41;;;20.11;44.44
55660;BME280;41534;53.550;9.964;2024-03-02T07:14:14;100130.72;;;20.10;44.48
55660;BME280;41534;53.550;9.964;2024-03-02T07:17:15;100137.22;;;20.09;44.38
55660;BME280;41534;53.550;9.964;2024-03-02T07:20:15;100135.75;;;20.06;44.33
55660;BME280;41534;53.550;9.964;2024-03-02T07:23:15;100137.63;;;20.06;44.35
55660;BME280;41534;53.550;9.964;2024-03-02T07:26:16;100147.66;;;20.05;44.24
55660;BME280;41534;53.550;9.964;2024-03-02T07:29:16;100143.28;;;20.04;44.27
55660;BME280;41534;53.550;9.964;2024-03-02T07:32:16;100146.19;;;20.03;44.43
55660;BME280;41534;53.550;9.964;2024-03-02T07:35:17;100142.66;;;20.02;44.36
55660;BME280;41534;53.550;9.964;2024-03-02T07:38:17;100153.53;;;20.02;44.29
55660;BME280;41534;53.550;9.964;2024-03-02T07:41:17;100150.81;;;20.02;44.29
55660;BME280;41534;53.550;9.964;2024-03-02T07:44:18;100149.97;;;20.02;44.25
55660;BME280;41534;53.550;9.964;2024-03-02T07:47:18;100147.47;;;20.00;44.26
55660;BME280;41534;53.550;9.964;2024-03-02T07:50:19;100157.50;;;20.00;44.32
55660;BME280;41534;53.550;9.964;2024-03-02T07:53:19;100156.66;;;19.99;44.16
55660;BME280;41534;53.550;9.964;2024-03-02T07:56:19;100165.88;;;19.98;44.29
55660;BME280;41534;53.550;9.964;2024-03-02T07:59:20;100172.13;;;19.99;44.25
55660;BME280;41534;53.550;9.964;2024-03-02T08:02:20;100172.13;;;19.99;44.20
55660;BME280;41534;53.550;9.964;2024-03-02T08:05:20;100175.69;;;19.99;44.23
55660;BME280;41534;53.550;9.964;2024-03-02T08:08:21;100176.75;;;19.98;44.10
55660;BME280;41534;53.550;9.964;2024-03-02T08:11:21;100175.06;;;19.97;44.17
55660;BME280;41534;53.550;9.964;2024-03-02T08:14:21;100179.66;;;19.97;44.14
55660;BME280;41534;53.550;9.964;2024-03-02T08:17:22;100178.84;;;19.96;44.14
55660;BME280;41534;53.550;9.964;2024-03-02T08:20:22;100179.00;;;19.95;44.18
55660;BME280;41534;53.550;9.964;2024-03-02T08:23:22;100179.00;;;19.95;44.22
55660;BME280;41534;53.550;9.964;2024-03-02T08:26:22;100187.16;;;19.95;44.15
55660;BME280;41534;53.550;9.964;2024-03-02T08:29:23;100187.38;;;19.93;44.04
55660;BME280;41534;53.550;9.964;2024-03-02T08:32:23;100188.41;;;19.92;43.98
55660;BME280;41534;53.550;9.964;2024-03-02T08:35:23;100193.03;;;19.92;44.02
55660;BME280;41534;53.550;9.964;2024-03-02T08:38:23;100197.63;;;19.91;43.96
55660;BME280;41534;53.550;9.964;2024-03-02T08:41:24;100192.38;;;19.90;44.31
55660;BME280;41534;53.550;9.964;2024-03-02T08:44:24;100196.78;;;19.91;44.15
55660;BME280;41534;53.550;9.964;2024-03-02T08:47:24;100198.66;;;19.90;43.88
55660;BME280;41534;53.550;9.964;2024-03-02T08:50:25;100198.66;;;19.90;43.90
55660;BME280;41534;53.550;9.964;2024-03-02T08:53:25;100190.50;;;19.90;43.88
55660;BME280;41534;53.550;9.964;2024-03-02T08:56:25;100191.13;;;19.92;43.90
55660;BME280;41534;53.550;9.964;2024-03-02T08:59:26;100192.44;;;19.96;43.83
55660;BME280;41534;53.550;9.964;2024-03-02T09:02:26;100193.69;;;20.00;43.83
55660;BME280;41534;53.550;9.964;2024-03-02T09:05:26;100191.41;;;20.04;43.86
55660;BME280;41534;53.550;9.964;2024-03-02T09:08:27;100190.13;;;20.06;43.78
55660;BME280;41534;53.550;9.964;2024-03-02T09:11:27;100194.31;;;20.09;43.73
55660;BME280;41534;53.550;9.964;2024-03-02T09:14:27;100196.00;;;20.10;43.79
55660;BME280;41534;53.550;9.964;2024-03-02T09:17:28;100196.00;;;20.10;43.81
55660;BME280;41534;53.550;9.964;2024-03-02T09:20:28;100205.00;;;20.10;43.77
55660;BME280;41534;53.550;9.964;2024-03-02T09:23:28;100213.16;;;20.10;43.73
55660;BME280;41534;53.550;9.964;2024-03-02T09:26:29;100210.44;;;20.10;43.79
55660;BME280;41534;53.550;9.964;2024-03-02T09:29:29;100205.84;;;20.11;43.74
55660;BME280;41534;53.550;9.964;2024-03-02T09:32:29;100219.22;;;20.12;43.85
55660;BME280;41534;53.550;9.964;2024-03-02T09:35:29;100213.78;;;20.12;43.84
55660;BME280;41534;53.550;9.964;2024-03-02T09:38:32;100205.63;;;20.12;43.94
55660;BME280;41534;53.550;9.964;2024-03-02T09:41:33;100199.59;;;20.17;43.75
55660;BME280;41534;53.550;9.964;2024-03-02T09:44:33;100207.34;;;20.20;43.86
55660;BME280;41534;53.550;9.964;2024-03-02T09:47:33;100203.56;;;20.21;43.89
55660;BME280;41534;53.550;9.964;2024-03-02T09:50:34;100203.16;;;20.24;43.91
55660;BME280;41534;53.550;9.964;2024-03-02T09:53:34;100207.34;;;20.27;43.90
55660;BME280;41534;53.550;9.964;2024-03-02T09:56:34;100207.13;;;20.28;44.01
55660;BME280;41534;53.550;9.964;2024-03-02T09:59:35;100206.94;;;20.30;43.93
55660;BME280;41534;53.550;9.964;2024-03-02T10:02:35;100206.75;;;20.31;44.09
55660;BME280;41534;53.550;9.964;2024-03-02T10:05:35;100209.91;;;20.35;43.80
55660;BME280;41534;53.550;9.964;2024-03-02T10:08:42;100206.97;;;20.36;43.98
55660;BME280;41534;53.550;9.964;2024-03-02T10:11:43;100208.44;;;20.39;44.00
55660;BME280;41534;53.550;9.964;2024-03-02T10:14:44;100208.44;;;20.39;43.84
55660;BME280;41534;53.550;9.964;2024-03-02T10:17:44;100196.31;;;20.41;43.96
55660;BME280;41534;53.550;9.964;2024-03-02T10:20:45;100208.88;;;20.42;43.97
55660;BME280;41534;53.550;9.964;2024-03-02T10:23:45;100205.09;;;20.43;44.08
55660;BME280;41534;53.550;9.964;2024-03-02T10:26:45;100207.84;;;20.43;43.93
55660;BME280;41534;53.550;9.964;2024-03-02T10:29:47;100205.31;;;20.42;44.05
55660;BME280;41534;53.550;9.964;2024-03-02T10:32:49;100211.38;;;20.44;43.89
55660;BME280;41534;53.550;9.964;2024-03-02T10:35:50;100207.63;;;20.45;43.92
55660;BME280;41534;53.550;9.964;2024-03-02T10:38:50;100213.69;;;20.47;43.81
55660;BME280;41534;53.550;9.964;2024-03-02T10:41:51;100216.22;;;20.49;43.78
55660;BME280;41534;53.550;9.964;2024-03-02T10:44:52;100211.41;;;20.51;43.84
55660;BME280;41534;53.550;9.964;2024-03-02T10:47:52;100209.13;;;20.54;43.94
55660;BME280;41534;53.550;9.964;2024-03-02T10:50:53;100220.84;;;20.61;44.00
55660;BME280;41534;53.550;9.964;2024-03-02T10:53:53;100210.59;;;20.70;44.07
55660;BME280;41534;53.550;9.964;2024-03-02T10:56:55;100216.44;;;20.80;44.23
55660;BME280;41534;53.550;9.964;2024-03-02T11:00:02;100213.31;;;20.90;44.06
55660;BME280;41534;53.550;9.964;2024-03-02T11:03:06;100224.44;;;21.01;44.25
55660;BME280;41534;53.550;9.964;2024-03-02T11:06:08;100218.53;;;21.11;44.04
55660;BME280;41534;53.550;9.964;2024-03-02T11:09:09;100223.78;;;21.19;44.09
55660;BME280;41534;53.550;9.964;2024-03-02T11:12:17;100223.38;;;21.29;44.32
55660;BME280;41534;53.550;9.964;2024-03-02T11:15:19;100220.66;;;21.35;44.04
55660;BME280;41534;53.550;9.964;2024-03-02T11:18:21;100224.19;;;21.43;44.53
55660;BME280;41534;53.550;9.964;2024-03-02T11:21:21;100227.72;;;21.50;44.23
55660;BME280;41534;53.550;9.964;2024-03-02T11:31:01;100231.25;;;21.70;44.40
55660;BME280;41534;53.550;9.964;2024-03-02T11:34:17;100238.78;;;21.75;44.44
55660;BME280;41534;53.550;9.964;2024-03-02T11:37:20;100247.16;;;21.80;44.33
55660;BME280;41534;53.550;9.964;2024-03-02T11:40:24;100237.47;;;21.84;44.67
55660;BME280;41534;53.550;9.964;2024-03-02T11:43:26;100237.91;;;21.87;44.60
55660;BME280;41534;53.550;9.964;2024-03-02T11:46:27;100236.41;;;21.91;44.67
55660;BME280;41534;53.550;9.964;2024-03-02T11:49:51;100231.13;;;21.96;44.76
55660;BME280;41534;53.550;9.964;2024-03-02T11:52:51;100237.00;;;22.00;44.51
55660;BME280;41534;53.550;9.964;2024-03-02T11:55:52;100230.25;;;22.03;44.60
55660;BME280;41534;53.550;9.964;2024-03-02T11:58:55;100236.41;;;22.05;44.57
55660;BME280;41534;53.550;9.964;2024-03-02T12:01:55;100230.50;;;22.08;44.55
55660;BME280;41534;53.550;9.964;2024-03-02T12:04:56;100232.78;;;22.11;44.67
55660;BME280;41534;53.550;9.964;2024-03-02T12:08:01;100236.75;;;22.15;44.72
55660;BME280;41534;53.550;9.964;2024-03-02T12:11:02;100222.66;;;22.18;44.73
55660;BME280;41534;53.550;9.964;2024-03-02T12:14:02;100227.69;;;22.21;44.86
55660;BME280;41534;53.550;9.964;2024-03-02T12:17:03;100222.03;;;22.22;45.14
55660;BME280;41534;53.550;9.964;2024-03-02T12:20:05;100226.66;;;22.22;44.83
55660;BME280;41534;53.550;9.964;2024-03-02T12:23:05;100220.13;;;22.23;45.03
55660;BME280;41534;53.550;9.964;2024-03-02T12:26:06;100223.72;;;22.23;44.99
55660;BME280;41534;53.550;9.964;2024-03-02T12:29:07;100213.84;;;22.22;44.96
55660;BME280;41534;53.550;9.964;2024-03-02T12:32:07;100214.69;;;22.23;44.81
55660;BME280;41534;53.550;9.964;2024-03-02T12:35:08;100212.78;;;22.23;44.90
55660;BME280;41534;53.550;9.964;2024-03-02T12:38:10;100214.47;;;22.24;44.66
55660;BME280;41534;53.550;9.964;2024-03-02T12:41:10;100216.13;;;22.25;44.80
55660;BME280;41534;53.550;9.964;2024-03-02T12:44:10;100218.88;;;22.25;44.89
55660;BME280;41534;53.550;9.964;2024-03-02T12:47:11;100207.09;;;22.25;44.93
55660;BME280;41534;53.550;9.964;2024-03-02T12:50:12;100218.03;;;22.25;44.97
55660;BME280;41534;53.550;9.964;2024-03-02T12:53:16;100207.94;;;22.25;44.87
55660;BME280;41534;53.550;9.964;2024-03-02T12:56:16;100206.06;;;22.26;44.56
55660;BME280;41534;53.550;9.964;2024-03-02T12:59:23;100202.25;;;22.27;44.87
55660;BME280;41534;53.550;9.964;2024-03-02T13:02:23;100206.66;;;22.28;44.62
55660;BME280;41534;53.550;9.964;2024-03-02T13:05:24;100201.81;;;22.30;44.80
55660;BME280;41534;53.550;9.964;2024-03-02T13:08:24;100206.22;;;22.31;44.77
55660;BME280;41534;53.550;9.964;2024-03-02T13:11:24;100196.13;;;22.32;44.66
55660;BME280;41534;53.550;9.964;2024-03-02T13:14:25;100204.94;;;22.34;44.78
55660;BME280;41534;53.550;9.964;2024-03-02T13:17:25;100209.34;;;22.35;44.74
55660;BME280;41534;53.550;9.964;2024-03-02T13:20:30;100208.28;;;22.36;44.67
55660;BME280;41534;53.550;9.964;2024-03-02T13:23:31;100209.72;;;22.38;44.72
55660;BME280;41534;53.550;9.964;2024-03-02T13:26:31;100200.50;;;22.39;44.48
55660;BME280;41534;53.550;9.964;2024-03-02T13:29:31;100200.28;;;22.41;44.79
55660;BME280;41534;53.550;9.964;2024-03-02T13:32:32;100200.06;;;22.42;44.26
55660;BME280;41534;53.550;9.964;2024-03-02T13:35:32;100195.22;;;22.44;44.70
55660;BME280;41534;53.550;9.964;2024-03-02T13:38:32;100199.63;;;22.45;44.75
55660;BME280;41534;53.550;9.964;2024-03-02T13:41:33;100197.50;;;22.47;44.73
55660;BME280;41534;53.550;9.964;2024-03-02T13:44:33;100202.53;;;22.50;44.70
55660;BME280;41534;53.550;9.964;2024-03-02T13:47:33;100207.53;;;22.53;44.56
55660;BME280;41534;53.550;9.964;2024-03-02T13:50:34;100198.28;;;22.54;44.72
55660;BME280;41534;53.550;9.964;2024-03-02T13:53:34;100199.75;;;22.57;44.40
55660;BME280;41534;53.550;9.964;2024-03-02T13:56:34;100195.75;;;22.60;44.36
55660;BME280;41534;53.550;9.964;2024-03-02T13:59:35;100188.16;;;22.62;44.44
55660;BME280;41534;53.550;9.964;2024-03-02T14:02:36;100194.25;;;22.64;44.47
55660;BME280;41534;53.550;9.964;2024-03-02T14:05:36;100191.28;;;22.65;44.57
55660;BME280;41534;53.550;9.964;2024-03-02T14:08:37;100189.16;;;22.67;44.39
55660;BME280;41534;53.550;9.964;2024-03-02T14:11:37;100191.66;;;22.69;44.39
55660;BME280;41534;53.550;9.964;2024-03-02T14:14:38;100191.66;;;22.69;44.41
55660;BME280;41534;53.550;9.964;2024-03-02T14:17:38;100187.88;;;22.70;44.37
55660;BME280;41534;53.550;9.964;2024-03-02T14:20:38;100185.38;;;22.68;44.32
55660;BME280;41534;53.550;9.964;2024-03-02T14:23:39;100175.50;;;22.67;44.34
55660;BME280;41534;53.550;9.964;2024-03-02T14:26:39;100175.72;;;22.66;44.31
55660;BME280;41534;53.550;9.964;2024-03-02T14:29:40;100175.97;;;22.64;44.25
55660;BME280;41534;53.550;9.964;2024-03-02T14:32:41;100178.91;;;22.63;44.09
55660;BME280;41534;53.550;9.964;2024-03-02T14:35:41;100177.47;;;22.60;44.27
55660;BME280;41534;53.550;9.964;2024-03-02T14:38:41;100180.41;;;22.59;44.07
55660;BME280;41534;53.550;9.964;2024-03-02T14:41:42;100180.81;;;22.62;44.18
55660;BME280;41534;53.550;9.964;2024-03-02T14:44:42;100172.84;;;22.61;44.25
55660;BME280;41534;53.550;9.964;2024-03-02T14:47:42;100182.53;;;22.56;44.39
55660;BME280;41534;53.550;9.964;2024-03-02T14:50:42;100170.56;;;22.58;44.40
55660;BME280;41534;53.550;9.964;2024-03-02T14:53:43;100177.50;;;22.53;44.40
55660;BME280;41534;53.550;9.964;2024-03-02T14:56:43;100178.78;;;22.51;44.28
55660;BME280;41534;53.550;9.964;2024-03-02T14:59:44;100179.00;;;22.49;44.34
55660;BME280;41534;53.550;9.964;2024-03-02T15:02:44;100172.47;;;22.50;44.51
55660;BME280;41534;53.550;9.964;2024-03-02T15:05:44;100180.91;;;22.49;44.88
55660;BME280;41534;53.550;9.964;2024-03-02T15:08:45;100173.78;;;22.48;44.98
55660;BME280;41534;53.550;9.964;2024-03-02T15:11:45;100167.09;;;22.44;45.48
55660;BME280;41534;53.550;9.964;2024-03-02T15:14:46;100180.97;;;22.42;45.65
55660;BME280;41534;53.550;9.964;2024-03-02T15:17:46;100183.06;;;22.40;45.46
55660;BME280;41534;53.550;9.964;2024-03-02T15:20:46;100180.53;;;22.39;45.70
55660;BME280;41534;53.550;9.964;2024-03-02T15:23:46;100176.38;;;22.36;45.76
55660;BME280;41534;53.550;9.964;2024-03-02T15:26:47;100183.94;;;22.34;46.06
55660;BME280;41534;53.550;9.964;2024-03-02T15:29:47;100172.41;;;22.32;46.00
55660;BME280;41534;53.550;9.964;2024-03-02T15:32:47;100177.25;;;22.30;45.97
55660;BME280;41534;53.550;9.964;2024-03-02T15:35:48;100179.38;;;22.28;46.24
55660;BME280;41534;53.550;9.964;2024-03-02T15:38:48;100181.50;;;22.26;46.27
55660;BME280;41534;53.550;9.964;2024-03-02T15:41:48;100179.81;;;22.25;46.48
55660;BME280;41534;53.550;9.964;2024-03-02T15:44:49;100184.66;;;22.23;46.32
55660;BME280;41534;53.550;9.964;2024-03-02T15:47:49;100183.19;;;22.20;46.14
55660;BME280;41534;53.550;9.964;2024-03-02T15:50:49;100173.31;;;22.19;46.34
55660;BME280;41534;53.550;9.964;2024-03-02T15:53:50;100173.53;;;22.18;46.25
55660;BME280;41534;53.550;9.964;2024-03-02T15:56:50;100181.94;;;22.16;46.47